Jask, Iran
Current Conditions -  °F | °C
As of 9:00 PM on Thursday 30 Oct 2014 (Local Time) from OIZJ Reporting Station
Clear Clear  
Wind Chill: 81°   Ceiling: Unl
Heat Index: 86°   Visibility: 4mi
Dew Point: 75°   Wind: 7mph
Humidity: 84%   Direction: 270°W
Pressure: 29.85"   Gusts: NA
Location:  25.65°N, 57.78°E
Report Text: OIZJ 301800Z 27006KT 6000 SKC 27/24 Q1011
Loading
Personal Weather Stations






























Interactive Weather Map New forecast layout! Learn more

10-Day Weather Forecast

Advertisements
Track Severe Weather on mobile